Monday, June 26, 2017, 1:15 PM EDT
Back to Local

KMHT, Manchester Airport

Location: Manchester, NH, United States Lat: 42.933
Local Time: 1:15 PM EDT (17:15 GMT) Lon: -71.433
Time Zone: US/Eastern Elev: 232 ft

Show me the last for .
Show Decoded

2017-06-26 12:53 METAR KMHT 261653Z 26007KT 10SM BKN080 23/07 A2995 RMK AO2 SLP153 T02330067 =
2017-06-26 11:53 METAR KMHT 261553Z 29008G17KT 250V360 10SM SCT060 23/07 A2996 RMK AO2 SLP154
                 T02280067 =
2017-06-26 10:53 METAR KMHT 261453Z 28012G16KT 10SM SCT050 22/07 A2996 RMK AO2 SLP157 T02220072
                 51004 =
2017-06-26 09:53 METAR KMHT 261353Z 28011G18KT 10SM FEW048 21/07 A2996 RMK AO2 SLP156 T02110072 =
2017-06-26 08:53 METAR KMHT 261253Z 28007KT 10SM FEW050 20/07 A2996 RMK AO2 SLP155 T02000072 =
2017-06-26 07:53 METAR KMHT 261153Z 28008KT 10SM CLR 19/08 A2995 RMK AO2 SLP153 T01890083 10189
                 20150 51011 =
2017-06-26 06:53 METAR KMHT 261053Z 24003KT 10SM CLR 17/09 A2994 RMK AO2 SLP150 T01670089 =
2017-06-26 05:53 METAR KMHT 260953Z 23004KT 10SM FEW120 16/11 A2993 RMK AO2 SLP146 T01560106 =
2017-06-26 04:53 METAR KMHT 260853Z 21004KT 10SM FEW120 16/11 A2992 RMK AO2 SLP142 T01560106
                 53005 =
2017-06-26 03:53 METAR KMHT 260753Z 23003KT 10SM FEW065 SCT100 17/10 A2992 RMK AO2 SLP139
                 T01720100 =
2017-06-26 02:53 METAR KMHT 260653Z 24004KT 10SM SCT060 BKN100 17/11 A2990 RMK AO2 SLP137
                 T01720111 =
2017-06-26 01:53 METAR KMHT 260553Z 18004KT 10SM SCT060 OVC090 17/13 A2991 RMK AO2 SLP137 60000
                 T01720128 10244 20172 58002 =
2017-06-26 00:53 METAR KMHT 260453Z 19005KT 10SM SCT060 OVC090 17/14 A2993 RMK AO2 SLP144
                 T01720139 402830172 =
2017-06-25 23:53 METAR KMHT 260353Z 20006KT 10SM SCT060 BKN085 OVC110 17/14 A2992 RMK AO2
                 RAB42E53 SLP142 P0000 T01720139 =
2017-06-25 22:53 METAR KMHT 260253Z 19006KT 10SM SCT080 BKN100 18/14 A2991 RMK AO2 RAE09 SLP139
                 P0000 60000 T01780139 50019 =
2017-06-25 21:53 METAR KMHT 260153Z 19008KT 10SM -RA BKN080 BKN095 19/14 A2992 RMK AO2 RAB28
                 SLP142 P0000 T01890139 =
2017-06-25 20:53 METAR KMHT 260053Z 23005KT 10SM FEW075 BKN090 BKN140 22/09 A2988 RMK AO2 RAE09
                 SLP128 P0000 T02220089 =
2017-06-25 19:53 METAR KMHT 252353Z 23010G16KT 10SM -RA SCT075 BKN100 BKN140 25/13 A2985 RMK AO2
                 RAB50 SLP119 P0000 60000 T02500128 10283 20250 53006 =
2017-06-25 18:53 METAR KMHT 252253Z 29006KT 10SM SCT070 BKN090 25/12 A2985 RMK AO2 SLP118
                 T02500122 =
2017-06-25 17:53 METAR KMHT 252153Z 20011KT 10SM FEW070 SCT090 27/11 A2983 RMK AO2 SLP111
                 T02720111 =
2017-06-25 16:53 METAR KMHT 252053Z 20011KT 10SM SCT070 SCT090 27/11 A2984 RMK AO2 SLP113
                 T02720106 58014 =
2017-06-25 15:53 METAR KMHT 251953Z 23010G17KT 10SM FEW065 SCT100 28/09 A2985 RMK AO2 SLP116
                 T02780089 =
2017-06-25 14:53 METAR KMHT 251853Z 27007KT 10SM SCT065 BKN090 27/10 A2987 RMK AO2 SLP124
                 T02670100 =
2017-06-25 13:53 METAR KMHT 251753Z VRB04KT 10SM SCT065 BKN110 27/11 A2988 RMK AO2 SLP127
                 T02720106 10278 20206 58014 =

Support USWX by starting your Amazon purchase here.